Time;durP1;ratioP1;P1;durP2;ratioP2;P2;SDS_P1;SDS_P2;PMS_P1;PMS_P2;Temp;Humidity;BMP_temperature;BMP_pressure;BME280_temperature;BME280_humidity;BME280_pressure;Samples;Min_cycle;Max_cycle;Signal;HPM_P1;HPM_P2
2022/12/04 00:01:54;;;;;;;20.40;9.52;;;1.90;99.90;;;;;;5138022;27;20039;-68
2022/12/04 00:04:19;;;;;;;22.48;11.95;;;2.30;99.90;;;;;;5119808;27;20123;-68
2022/12/04 00:06:45;;;;;;;24.05;11.40;;;2.70;99.90;;;;;;5138512;27;20047;-69
2022/12/04 00:09:11;;;;;;;23.33;11.52;;;1.80;99.90;;;;;;5137898;27;20126;-69
2022/12/04 00:11:37;;;;;;;22.08;10.93;;;1.60;99.90;;;;;;5136798;27;20038;-68
2022/12/04 00:14:03;;;;;;;20.23;10.57;;;1.80;99.90;;;;;;5137831;27;20049;-68
2022/12/04 00:16:29;;;;;;;22.75;11.05;;;1.60;99.90;;;;;;5137781;27;20553;-68
2022/12/04 00:18:55;;;;;;;23.45;10.52;;;1.60;99.90;;;;;;5154699;27;20047;-68
2022/12/04 00:21:23;;;;;;;24.58;10.23;;;1.40;99.90;;;;;;5119279;27;20036;-68
2022/12/04 00:23:50;;;;;;;25.83;11.98;;;1.80;99.90;;;;;;5137664;27;20372;-68
2022/12/04 00:26:19;;;;;;;26.17;12.02;;;1.70;99.90;;;;;;5138388;27;20047;-68
2022/12/04 00:28:45;;;;;;;25.40;12.98;;;1.90;99.90;;;;;;5119685;27;20043;-68
2022/12/04 00:31:17;;;;;;;25.48;12.55;;;1.50;99.90;;;;;;5119282;27;20050;-68
2022/12/04 00:33:43;;;;;;;27.10;14.13;;;1.40;99.90;;;;;;5137143;27;20573;-68
2022/12/04 00:36:12;;;;;;;26.92;12.73;;;1.60;99.90;;;;;;5137443;27;20051;-68
2022/12/04 00:38:38;;;;;;;25.38;13.32;;;1.50;99.90;;;;;;5137847;27;20382;-68
2022/12/04 00:41:07;;;;;;;27.15;11.75;;;2.60;99.90;;;;;;5137183;27;20055;-68
2022/12/04 00:43:32;;;;;;;25.35;12.90;;;2.40;99.90;;;;;;5137259;27;20511;-68
2022/12/04 00:45:58;;;;;;;28.25;13.43;;;2.40;99.90;;;;;;5118822;27;20039;-68
2022/12/04 00:48:24;;;;;;;26.38;11.48;;;1.50;99.90;;;;;;5136903;27;20058;-68
2022/12/04 00:50:50;;;;;;;27.38;11.98;;;1.80;99.90;;;;;;5138015;27;20047;-68
2022/12/04 00:53:16;;;;;;;30.42;12.82;;;2.20;99.90;;;;;;5136574;27;20043;-68
2022/12/04 00:55:43;;;;;;;28.58;15.30;;;1.40;99.90;;;;;;5137022;27;20386;-68
2022/12/04 00:58:09;;;;;;;30.27;14.75;;;2.60;99.90;;;;;;5137029;27;20053;-68
2022/12/04 01:00:37;;;;;;;31.13;13.15;;;1.00;99.90;;;;;;5137168;27;20092;-68
2022/12/04 01:03:03;;;;;;;33.70;15.00;;;1.20;99.90;;;;;;5118755;27;20406;-68
2022/12/04 01:05:29;;;;;;;31.30;14.15;;;1.20;99.90;;;;;;5119063;27;20135;-68
2022/12/04 01:07:55;;;;;;;33.08;14.63;;;2.40;99.90;;;;;;5118675;27;20085;-68
2022/12/04 01:10:22;;;;;;;32.05;14.73;;;1.60;99.90;;;;;;5136441;27;20114;-68
2022/12/04 01:12:49;;;;;;;35.75;14.98;;;1.30;99.90;;;;;;5136755;27;20043;-68
2022/12/04 01:15:15;;;;;;;35.30;15.82;;;2.40;99.90;;;;;;5136720;27;20047;-69
2022/12/04 01:17:41;;;;;;;36.38;16.05;;;1.20;99.90;;;;;;5136344;27;20047;-68
2022/12/04 01:20:07;;;;;;;32.00;16.27;;;1.20;99.90;;;;;;5136167;27;20043;-68
2022/12/04 01:22:33;;;;;;;34.85;15.27;;;1.10;99.90;;;;;;5136512;27;20045;-68
2022/12/04 01:24:58;;;;;;;34.58;16.55;;;1.10;99.90;;;;;;5136467;27;20047;-68
2022/12/04 01:27:24;;;;;;;34.20;15.88;;;1.20;99.90;;;;;;5136981;27;20050;-68
2022/12/04 01:29:50;;;;;;;30.95;16.00;;;1.00;99.90;;;;;;5119066;27;20059;-68
2022/12/04 01:32:15;;;;;;;34.30;15.05;;;2.00;99.90;;;;;;5136245;27;20047;-70
2022/12/04 01:34:41;;;;;;;35.05;15.98;;;1.20;99.90;;;;;;5136614;27;20083;-67
2022/12/04 01:37:07;;;;;;;32.70;15.20;;;1.20;99.90;;;;;;5136756;27;20043;-68
2022/12/04 01:39:35;;;;;;;29.67;14.10;;;1.20;99.90;;;;;;5136125;27;20058;-68
2022/12/04 01:42:01;;;;;;;27.83;14.43;;;1.80;99.90;;;;;;5135692;27;20523;-68
2022/12/04 01:44:30;;;;;;;29.17;14.25;;;1.10;99.90;;;;;;5100763;27;20133;-69
2022/12/04 01:46:58;;;;;;;33.78;14.80;;;2.10;99.90;;;;;;5136029;27;20043;-68
2022/12/04 01:49:40;;;;;;;33.45;16.15;;;1.20;99.90;;;;;;5117678;27;20086;-68
2022/12/04 01:52:14;;;;;;;30.00;14.50;;;1.20;99.90;;;;;;5135961;27;20092;-68
2022/12/04 01:54:43;;;;;;;32.50;16.35;;;1.10;99.90;;;;;;5136567;27;20065;-68
2022/12/04 01:57:16;;;;;;;33.47;15.75;;;1.50;99.90;;;;;;5117631;27;20051;-68
2022/12/04 01:59:50;;;;;;;36.50;16.50;;;1.50;99.90;;;;;;5117390;27;20092;-68
2022/12/04 02:02:21;;;;;;;30.50;13.95;;;1.30;99.90;;;;;;5136292;27;20276;-68
2022/12/04 02:04:47;;;;;;;33.28;15.20;;;1.00;99.90;;;;;;5135747;27;20054;-68
2022/12/04 02:07:13;;;;;;;31.92;15.63;;;1.70;99.90;;;;;;5117301;27;20039;-68
2022/12/04 02:09:40;;;;;;;30.67;15.50;;;1.50;99.90;;;;;;5100440;27;20120;-69
2022/12/04 02:12:54;;;;;;;34.38;16.02;;;1.50;99.90;;;;;;5135532;27;20084;-68
2022/12/04 02:15:31;;;;;;;36.50;16.20;;;1.00;99.90;;;;;;5090261;27;20087;-68
2022/12/04 02:18:09;;;;;;;34.33;16.08;;;1.10;99.90;;;;;;5100657;27;20047;-68
2022/12/04 02:20:46;;;;;;;30.73;15.63;;;1.10;99.90;;;;;;5135338;27;20035;-68
2022/12/04 02:23:26;;;;;;;33.22;14.82;;;1.00;99.90;;;;;;5135396;27;20039;-68
2022/12/04 02:26:19;;;;;;;33.10;16.75;;;1.00;99.90;;;;;;5135273;27;20160;-68
2022/12/04 02:28:59;;;;;;;36.78;16.88;;;1.00;99.90;;;;;;5135785;27;20129;-68
2022/12/04 02:31:45;;;;;;;34.75;15.48;;;1.40;99.90;;;;;;5135709;27;20043;-68
2022/12/04 02:34:17;;;;;;;32.75;16.40;;;1.10;99.90;;;;;;5117746;27;20059;-68
2022/12/04 02:36:49;;;;;;;37.08;16.42;;;0.90;99.90;;;;;;5135065;27;20047;-68
2022/12/04 02:39:27;;;;;;;31.25;15.68;;;1.00;99.90;;;;;;5117261;27;20053;-68
2022/12/04 02:42:00;;;;;;;35.85;16.83;;;1.20;99.90;;;;;;5135187;27;20066;-68
2022/12/04 02:44:43;;;;;;;35.45;16.70;;;1.00;99.90;;;;;;5116975;27;20131;-68
2022/12/04 02:47:15;;;;;;;33.97;17.25;;;2.20;99.90;;;;;;5116583;27;20051;-68
2022/12/04 02:49:46;;;;;;;34.35;16.55;;;1.00;99.90;;;;;;5135074;27;20059;-68
2022/12/04 02:52:17;;;;;;;34.20;16.60;;;1.50;99.90;;;;;;5135210;27;20051;-68
2022/12/04 02:54:48;;;;;;;34.75;17.20;;;2.00;99.90;;;;;;5116221;27;20137;-68
2022/12/04 02:57:22;;;;;;;36.72;16.63;;;1.30;99.90;;;;;;5116991;27;20058;-68
2022/12/04 02:59:50;;;;;;;31.85;17.10;;;0.90;99.90;;;;;;5134406;27;20493;-68
2022/12/04 03:02:33;;;;;;;37.22;16.65;;;2.30;99.90;;;;;;5134741;27;20043;-68
2022/12/04 03:05:03;;;;;;;33.80;16.58;;;1.00;99.90;;;;;;5117017;27;20050;-68
2022/12/04 03:08:01;;;;;;;34.35;15.32;;;0.90;99.90;;;;;;5134666;27;20047;-68
2022/12/04 03:10:33;;;;;;;35.17;16.50;;;1.00;99.90;;;;;;5151209;27;20070;-68
2022/12/04 03:13:05;;;;;;;36.60;16.65;;;1.00;99.90;;;;;;5134363;27;20042;-68
2022/12/04 03:16:09;;;;;;;34.10;16.15;;;1.00;99.90;;;;;;5134543;28;20062;-68
2022/12/04 03:18:47;;;;;;;37.10;17.45;;;0.90;99.90;;;;;;5116215;28;20050;-68
2022/12/04 03:21:20;;;;;;;33.75;16.02;;;1.70;99.90;;;;;;5134483;28;20039;-68
2022/12/04 03:24:11;;;;;;;37.63;16.63;;;1.80;99.90;;;;;;5116221;28;20390;-68
2022/12/04 03:26:43;;;;;;;34.05;17.45;;;0.90;99.90;;;;;;5117239;28;20490;-68
2022/12/04 03:29:15;;;;;;;35.90;17.33;;;1.00;99.90;;;;;;5134525;28;20084;-68
2022/12/04 03:31:49;;;;;;;33.22;16.45;;;1.00;99.90;;;;;;5116123;28;20043;-68
2022/12/04 03:34:24;;;;;;;38.28;17.80;;;2.10;99.90;;;;;;5135199;28;20043;-68
2022/12/04 03:36:55;;;;;;;36.55;17.23;;;0.90;99.90;;;;;;5134996;28;20483;-68
2022/12/04 03:39:29;;;;;;;37.33;16.88;;;0.90;99.90;;;;;;5117080;28;20047;-68
2022/12/04 03:42:07;;;;;;;36.20;17.10;;;1.20;99.90;;;;;;5134353;28;20126;-68
2022/12/04 03:45:03;;;;;;;35.53;16.75;;;1.30;99.90;;;;;;5134643;28;20047;-68
2022/12/04 03:47:54;;;;;;;37.35;17.40;;;0.90;99.90;;;;;;5116216;28;20051;-68
2022/12/04 03:50:34;;;;;;;38.20;17.65;;;0.90;99.90;;;;;;5083663;28;20246;-68
2022/12/04 03:53:17;;;;;;;37.13;18.38;;;0.90;99.90;;;;;;5092720;28;20055;-68
2022/12/04 03:55:52;;;;;;;34.35;16.50;;;1.40;99.90;;;;;;5093688;28;20059;-68
2022/12/04 03:58:26;;;;;;;37.00;16.30;;;0.90;99.90;;;;;;5093930;28;20044;-68
2022/12/04 04:00:54;;;;;;;36.05;16.95;;;0.90;99.90;;;;;;5126320;28;20043;-68
2022/12/04 04:03:30;;;;;;;36.05;17.63;;;1.20;99.90;;;;;;5092016;28;20389;-68
2022/12/04 04:06:04;;;;;;;35.35;17.85;;;0.90;99.90;;;;;;5110469;28;20572;-68
2022/12/04 04:08:35;;;;;;;35.00;17.23;;;1.10;99.90;;;;;;5097116;28;20105;-68
2022/12/04 04:11:16;;;;;;;36.42;17.08;;;1.30;99.90;;;;;;5097341;28;20079;-68
2022/12/04 04:25:17;;;;;;;34.42;16.15;;;1.60;99.90;;;;;;5097365;28;20488;-68
2022/12/04 04:27:51;;;;;;;35.93;17.00;;;1.60;99.90;;;;;;5097502;28;20073;-68
2022/12/04 04:30:17;;;;;;;32.78;17.20;;;0.80;99.90;;;;;;5096382;28;20052;-68
2022/12/04 04:32:56;;;;;;;42.00;19.48;;;2.20;99.90;;;;;;5097052;28;20081;-68
2022/12/04 04:36:01;;;;;;;38.80;18.25;;;0.80;99.90;;;;;;5096182;28;20044;-68
2022/12/04 04:38:36;;;;;;;38.00;18.20;;;0.80;99.90;;;;;;5034045;28;20045;-68
2022/12/04 04:41:19;;;;;;;36.45;18.27;;;1.10;99.90;;;;;;5083922;28;20131;-68
2022/12/04 04:44:10;;;;;;;34.28;16.50;;;0.90;99.90;;;;;;5097313;28;20047;-69
2022/12/04 04:46:42;;;;;;;35.80;17.77;;;1.50;99.90;;;;;;5096378;28;20043;-68
2022/12/04 04:49:11;;;;;;;34.42;16.75;;;1.40;99.90;;;;;;5111899;27;20082;-68
2022/12/04 04:51:37;;;;;;;36.40;16.23;;;1.30;99.90;;;;;;5119146;27;20043;-67
2022/12/04 04:54:09;;;;;;;35.63;16.88;;;1.50;99.90;;;;;;5102048;27;20047;-68
2022/12/04 04:56:46;;;;;;;35.15;17.45;;;0.80;99.90;;;;;;5137693;27;20086;-68
2022/12/04 04:59:12;;;;;;;38.72;18.98;;;0.80;99.90;;;;;;5137032;27;20053;-68
2022/12/04 05:01:40;;;;;;;30.90;15.32;;;0.80;99.90;;;;;;5118829;27;20043;-68
2022/12/04 05:04:07;;;;;;;38.42;17.02;;;0.80;99.90;;;;;;5136864;27;20079;-68
2022/12/04 05:06:32;;;;;;;34.90;16.35;;;1.60;99.90;;;;;;5101776;27;20047;-68
2022/12/04 05:08:58;;;;;;;33.72;16.95;;;1.60;99.90;;;;;;5135858;27;20047;-68
2022/12/04 05:11:24;;;;;;;38.78;18.33;;;1.00;99.90;;;;;;5136792;27;20043;-68
2022/12/04 05:13:50;;;;;;;34.35;15.93;;;2.40;99.90;;;;;;5153129;27;20039;-68
2022/12/04 05:16:16;;;;;;;37.90;17.27;;;1.10;99.90;;;;;;5137530;27;20047;-68
2022/12/04 05:21:26;;;;;;;32.95;16.58;;;0.90;99.90;;;;;;5119057;27;20054;-68
2022/12/04 05:23:52;;;;;;;31.83;14.90;;;1.20;99.90;;;;;;5136526;27;20047;-68
2022/12/04 05:26:18;;;;;;;33.17;16.45;;;2.10;99.90;;;;;;5136212;27;20032;-68
2022/12/04 05:28:43;;;;;;;33.10;15.85;;;0.60;99.90;;;;;;5137021;27;20050;-69
2022/12/04 05:31:09;;;;;;;39.38;19.30;;;1.20;99.90;;;;;;5118098;27;20049;-68
2022/12/04 05:33:35;;;;;;;34.63;15.18;;;1.40;99.90;;;;;;5136514;27;20046;-68
2022/12/04 05:36:03;;;;;;;38.70;17.10;;;1.40;99.90;;;;;;5136282;27;20050;-69
2022/12/04 05:38:29;;;;;;;36.15;16.58;;;0.80;99.90;;;;;;5136236;27;20390;-68
2022/12/04 05:40:57;;;;;;;35.60;16.90;;;1.00;99.90;;;;;;5100924;27;20047;-68
2022/12/04 05:43:23;;;;;;;35.53;16.98;;;1.90;99.90;;;;;;5136077;27;20043;-68
2022/12/04 05:45:49;;;;;;;34.72;16.00;;;1.00;99.90;;;;;;5117831;27;20092;-68
2022/12/04 05:48:14;;;;;;;34.88;16.38;;;1.90;99.90;;;;;;5118237;27;20046;-68
2022/12/04 05:50:40;;;;;;;34.40;16.27;;;2.20;99.90;;;;;;5135989;27;20065;-68
2022/12/04 05:53:06;;;;;;;39.25;18.38;;;1.00;99.90;;;;;;5100799;27;20043;-68
2022/12/04 05:55:32;;;;;;;38.20;16.83;;;1.10;99.90;;;;;;5117771;27;20522;-68
2022/12/04 05:57:58;;;;;;;34.40;16.27;;;1.50;99.90;;;;;;5135861;27;20058;-68
2022/12/04 06:00:23;;;;;;;36.80;17.70;;;1.40;99.90;;;;;;5117051;27;20409;-68
2022/12/04 06:02:49;;;;;;;39.50;18.85;;;1.10;99.90;;;;;;5136165;27;20046;-68
2022/12/04 06:05:15;;;;;;;36.72;16.17;;;1.10;99.90;;;;;;5117387;27;20100;-68
2022/12/04 06:07:41;;;;;;;36.17;17.13;;;0.90;99.90;;;;;;5135586;27;20071;-68
2022/12/04 06:10:07;;;;;;;35.00;16.05;;;1.10;99.90;;;;;;5135558;27;20038;-68
2022/12/04 06:12:32;;;;;;;35.05;16.35;;;1.10;99.90;;;;;;5151588;27;20090;-68
2022/12/04 06:14:58;;;;;;;35.10;16.60;;;1.10;99.90;;;;;;5134347;27;20043;-68
2022/12/04 06:17:24;;;;;;;36.03;17.60;;;1.10;99.90;;;;;;5136261;27;20043;-68
2022/12/04 06:19:51;;;;;;;35.67;16.65;;;1.10;99.90;;;;;;5152226;27;20096;-68
2022/12/04 06:22:18;;;;;;;39.63;17.33;;;1.10;99.90;;;;;;5135897;27;20383;-68
2022/12/04 06:24:44;;;;;;;37.83;16.08;;;1.50;99.90;;;;;;5135852;27;20049;-68
2022/12/04 06:27:09;;;;;;;33.80;14.10;;;1.10;99.90;;;;;;5117566;27;20137;-68
2022/12/04 06:29:35;;;;;;;34.25;15.93;;;1.00;99.90;;;;;;5117346;27;20034;-68
2022/12/04 06:32:01;;;;;;;38.05;16.98;;;1.30;99.90;;;;;;5116796;27;20095;-68
2022/12/04 06:34:27;;;;;;;36.97;17.50;;;2.20;99.90;;;;;;5135047;27;20047;-68
2022/12/04 06:36:52;;;;;;;40.22;17.83;;;1.20;99.90;;;;;;5135097;27;20043;-68
2022/12/04 06:39:18;;;;;;;35.53;15.88;;;0.90;99.90;;;;;;5134760;27;20043;-68
2022/12/04 06:41:43;;;;;;;35.97;17.30;;;1.60;99.90;;;;;;5117024;27;20078;-68
2022/12/04 06:44:09;;;;;;;39.42;18.17;;;1.10;99.90;;;;;;5135595;27;20402;-68
2022/12/04 06:46:35;;;;;;;30.73;13.88;;;2.20;99.90;;;;;;5134650;27;20086;-67
2022/12/04 06:49:02;;;;;;;35.35;16.08;;;1.00;99.90;;;;;;5133427;27;20494;-68
2022/12/04 06:51:30;;;;;;;36.38;15.95;;;2.30;99.90;;;;;;5134904;27;20184;-68
2022/12/04 06:53:56;;;;;;;34.03;17.83;;;1.80;99.90;;;;;;5134913;27;20394;-68
2022/12/04 06:56:25;;;;;;;37.08;17.80;;;1.90;99.90;;;;;;5116726;27;20053;-68
2022/12/04 06:58:54;;;;;;;35.67;16.42;;;1.40;99.90;;;;;;5116435;27;20047;-68
2022/12/04 07:01:23;;;;;;;37.58;16.38;;;2.30;99.90;;;;;;5134718;27;20144;-68
2022/12/04 07:03:49;;;;;;;35.17;17.10;;;1.20;99.90;;;;;;5134638;27;20059;-68
2022/12/04 07:06:19;;;;;;;36.97;16.98;;;0.90;99.90;;;;;;5134686;27;20099;-68
2022/12/04 07:08:48;;;;;;;32.15;14.40;;;1.00;99.90;;;;;;5116382;27;20526;-67
2022/12/04 07:11:14;;;;;;;36.22;17.38;;;2.40;99.90;;;;;;5135429;27;20120;-68
2022/12/04 07:13:40;;;;;;;36.10;15.68;;;1.10;99.90;;;;;;5134601;27;20047;-68
2022/12/04 07:16:09;;;;;;;34.00;16.92;;;2.00;99.90;;;;;;5151294;27;20497;-68
2022/12/04 07:18:35;;;;;;;31.27;14.23;;;1.70;99.90;;;;;;5134172;28;20487;-68
2022/12/04 07:21:12;;;;;;;36.85;15.50;;;1.30;99.90;;;;;;5116667;28;20039;-68
2022/12/04 07:23:38;;;;;;;34.50;15.50;;;1.20;99.90;;;;;;5116467;28;20043;-68
2022/12/04 07:26:08;;;;;;;35.58;17.33;;;2.20;99.90;;;;;;5117148;28;20101;-68
2022/12/04 07:28:35;;;;;;;33.03;16.08;;;1.10;99.90;;;;;;5134548;28;20043;-68
2022/12/04 07:31:05;;;;;;;34.40;15.10;;;2.50;99.90;;;;;;5134376;28;20490;-68
2022/12/04 07:33:31;;;;;;;36.55;16.35;;;1.20;99.90;;;;;;5134304;28;20047;-68
2022/12/04 07:35:58;;;;;;;34.95;16.13;;;1.10;99.90;;;;;;5134089;28;20130;-68
2022/12/04 07:38:24;;;;;;;36.58;16.75;;;1.10;99.90;;;;;;5134387;28;20043;-68
2022/12/04 07:40:50;;;;;;;31.67;15.38;;;1.40;99.90;;;;;;5135311;27;20039;-68
2022/12/04 07:43:16;;;;;;;37.70;16.15;;;1.10;99.90;;;;;;5138710;27;20050;-69
2022/12/04 07:45:41;;;;;;;34.70;17.13;;;1.00;99.90;;;;;;5138736;27;20050;-68
2022/12/04 07:48:07;;;;;;;32.83;15.63;;;1.30;99.90;;;;;;5119952;27;20502;-68
2022/12/04 07:50:33;;;;;;;36.50;16.20;;;2.00;99.90;;;;;;5138623;27;20047;-68
2022/12/04 07:52:59;;;;;;;31.58;15.30;;;1.30;99.90;;;;;;5138293;27;20059;-68
2022/12/04 07:55:25;;;;;;;26.80;13.65;;;1.90;99.90;;;;;;5138259;27;20043;-68
2022/12/04 07:57:51;;;;;;;36.00;16.70;;;1.90;99.90;;;;;;5120387;27;20069;-68
2022/12/04 08:00:17;;;;;;;28.67;13.40;;;1.50;99.90;;;;;;5137021;27;20463;-68
2022/12/04 08:02:42;;;;;;;33.75;16.30;;;1.20;99.90;;;;;;5138736;27;20130;-68
2022/12/04 08:05:08;;;;;;;29.92;14.05;;;1.60;99.90;;;;;;5138548;27;20082;-68
2022/12/04 08:07:34;;;;;;;31.98;14.38;;;1.30;99.90;;;;;;5119772;27;20058;-68
2022/12/04 08:09:59;;;;;;;28.38;14.40;;;1.60;99.90;;;;;;5154033;27;20100;-68
2022/12/04 08:12:25;;;;;;;32.10;15.93;;;1.50;99.90;;;;;;5137619;27;20042;-69
2022/12/04 08:14:51;;;;;;;29.38;13.38;;;1.70;99.90;;;;;;5137886;27;20097;-69
2022/12/04 08:17:16;;;;;;;30.20;15.15;;;1.20;99.90;;;;;;5102474;27;20058;-68
2022/12/04 08:19:42;;;;;;;32.38;15.38;;;1.40;99.90;;;;;;5119554;27;20054;-68
2022/12/04 08:22:08;;;;;;;29.77;14.38;;;2.50;99.90;;;;;;5137369;27;20079;-68
2022/12/04 08:24:34;;;;;;;31.20;13.80;;;1.40;99.90;;;;;;5154003;27;20082;-67
2022/12/04 08:27:00;;;;;;;30.00;15.18;;;1.50;99.90;;;;;;5137760;27;20039;-68
2022/12/04 08:29:26;;;;;;;32.92;15.07;;;1.50;99.90;;;;;;5103525;27;20137;-68
2022/12/04 08:31:51;;;;;;;27.65;14.13;;;2.60;99.90;;;;;;5119539;27;20055;-67
2022/12/04 08:34:17;;;;;;;31.08;14.45;;;1.70;99.90;;;;;;5137569;27;20082;-68
2022/12/04 08:36:43;;;;;;;30.65;14.95;;;1.70;99.90;;;;;;5137675;27;20047;-68
2022/12/04 08:39:10;;;;;;;29.92;15.05;;;1.60;99.90;;;;;;5119303;27;20473;-68
2022/12/04 08:41:36;;;;;;;31.73;15.45;;;1.60;99.90;;;;;;5119110;27;20051;-68
2022/12/04 08:44:02;;;;;;;29.98;14.43;;;2.20;99.90;;;;;;5137473;27;20049;-68
2022/12/04 08:46:28;;;;;;;33.50;15.63;;;1.50;99.90;;;;;;5119047;27;20100;-68
2022/12/04 08:48:54;;;;;;;30.63;14.15;;;1.70;99.90;;;;;;5153696;27;20035;-68
2022/12/04 08:51:22;;;;;;;32.92;14.23;;;1.90;99.90;;;;;;5137620;27;20058;-69
2022/12/04 08:53:56;;;;;;;29.80;14.25;;;1.80;99.90;;;;;;5136036;27;20039;-68
2022/12/04 08:56:22;;;;;;;25.90;13.43;;;1.70;99.90;;;;;;5138041;27;20039;-70
2022/12/04 08:58:48;;;;;;;27.45;13.15;;;1.60;99.90;;;;;;5118817;27;20103;-69
2022/12/04 09:01:14;;;;;;;30.10;13.95;;;2.80;99.90;;;;;;5118774;27;20043;-70
2022/12/04 09:03:41;;;;;;;31.13;14.40;;;2.90;99.90;;;;;;5137008;27;20047;-70
2022/12/04 09:06:09;;;;;;;26.90;13.75;;;1.70;99.90;;;;;;5118910;27;20367;-69
2022/12/04 09:08:35;;;;;;;28.83;13.35;;;2.70;99.90;;;;;;5136950;27;20039;-70
2022/12/04 09:11:09;;;;;;;30.08;14.85;;;2.00;99.90;;;;;;5119102;27;20035;-69
2022/12/04 09:13:36;;;;;;;28.08;14.15;;;1.70;99.90;;;;;;5118856;27;20043;-69
2022/12/04 09:16:07;;;;;;;26.25;13.27;;;1.70;99.90;;;;;;5136865;27;20039;-69
2022/12/04 09:18:33;;;;;;;26.42;13.57;;;2.50;99.90;;;;;;5136720;27;20195;-68
2022/12/04 09:21:02;;;;;;;24.73;11.77;;;1.80;99.90;;;;;;5136673;27;20482;-68
2022/12/04 09:23:28;;;;;;;23.23;11.77;;;1.80;99.90;;;;;;5101448;27;20411;-68
2022/12/04 09:25:54;;;;;;;24.73;12.90;;;2.20;99.90;;;;;;5136616;27;20444;-68
2022/12/04 09:28:20;;;;;;;26.30;12.45;;;2.70;99.90;;;;;;5136562;27;20038;-68
2022/12/04 09:30:56;;;;;;;25.30;11.48;;;1.90;99.90;;;;;;5136504;27;20043;-68
2022/12/04 09:33:22;;;;;;;22.35;12.25;;;1.90;99.90;;;;;;5118930;27;20527;-69
2022/12/04 09:35:47;;;;;;;23.73;11.13;;;2.80;99.90;;;;;;5136138;27;20043;-69
2022/12/04 09:38:13;;;;;;;24.67;11.48;;;2.30;99.90;;;;;;5153028;27;20050;-69
2022/12/04 09:40:49;;;;;;;20.90;10.13;;;2.50;99.90;;;;;;5136867;27;20118;-69
2022/12/04 09:43:39;;;;;;;21.98;11.50;;;2.10;99.90;;;;;;5136793;27;20413;-68
2022/12/04 09:46:17;;;;;;;24.58;11.52;;;2.10;99.90;;;;;;5136282;27;20047;-68
2022/12/04 09:48:45;;;;;;;27.02;11.80;;;2.40;99.90;;;;;;5118199;27;20482;-68
2022/12/04 09:51:17;;;;;;;22.25;10.70;;;3.20;99.90;;;;;;5136614;27;20050;-68
2022/12/04 09:53:50;;;;;;;23.35;10.85;;;2.50;99.90;;;;;;5136225;27;20047;-68
2022/12/04 09:56:18;;;;;;;24.13;10.77;;;2.20;99.90;;;;;;5118821;27;20046;-68
2022/12/04 09:58:48;;;;;;;23.35;11.52;;;2.10;99.90;;;;;;5117706;27;20054;-68
2022/12/04 10:01:25;;;;;;;28.52;12.55;;;2.20;99.90;;;;;;5135898;27;20049;-68
2022/12/04 10:03:52;;;;;;;24.13;11.90;;;2.20;99.90;;;;;;5117413;27;20039;-68
2022/12/04 10:06:23;;;;;;;26.38;13.10;;;2.80;99.90;;;;;;5117530;27;20167;-68
2022/12/04 10:09:04;;;;;;;24.85;12.32;;;2.80;99.90;;;;;;5135819;27;20046;-68
2022/12/04 10:11:50;;;;;;;23.00;12.18;;;2.20;99.90;;;;;;5118301;27;20212;-68
2022/12/04 10:14:34;;;;;;;23.38;11.65;;;2.40;99.90;;;;;;5117913;27;20043;-68
2022/12/04 10:17:41;;;;;;;22.90;10.80;;;2.20;99.90;;;;;;5117278;27;20099;-68
2022/12/04 10:20:07;;;;;;;21.45;10.32;;;2.30;99.90;;;;;;5135287;27;20482;-68
2022/12/04 10:22:53;;;;;;;22.42;10.65;;;2.40;99.90;;;;;;5135545;27;20096;-68
2022/12/04 10:25:25;;;;;;;20.35;11.13;;;2.90;99.90;;;;;;5135562;27;20459;-67
2022/12/04 10:27:55;;;;;;;20.27;10.30;;;2.60;99.90;;;;;;5136378;27;20118;-68
2022/12/04 10:30:28;;;;;;;22.27;10.55;;;2.40;99.90;;;;;;5117577;27;20047;-67
2022/12/04 10:33:10;;;;;;;22.23;9.73;;;3.10;99.90;;;;;;5135948;27;20043;-67
2022/12/04 10:35:40;;;;;;;18.98;9.68;;;2.60;99.90;;;;;;5135169;27;20047;-68
2022/12/04 10:38:19;;;;;;;22.67;9.43;;;4.40;99.90;;;;;;5134997;27;20039;-68
2022/12/04 10:40:54;;;;;;;21.45;9.85;;;2.30;99.90;;;;;;5135915;27;20370;-68
2022/12/04 10:43:30;;;;;;;18.58;9.13;;;3.10;99.90;;;;;;5100914;27;20043;-68
2022/12/04 10:45:57;;;;;;;17.92;9.40;;;2.40;99.90;;;;;;5117996;27;20043;-68
2022/12/04 10:48:30;;;;;;;19.10;9.70;;;2.50;99.90;;;;;;5116815;27;20046;-68
2022/12/04 10:50:56;;;;;;;19.20;8.65;;;2.40;99.90;;;;;;5116712;27;20095;-68
2022/12/04 10:53:29;;;;;;;17.75;8.70;;;3.20;99.90;;;;;;5134903;27;20082;-68
2022/12/04 10:55:55;;;;;;;16.50;8.57;;;2.80;99.90;;;;;;5135102;27;20467;-68
2022/12/04 10:58:21;;;;;;;16.02;8.13;;;2.50;99.90;;;;;;5116671;27;20126;-68
2022/12/04 11:01:14;;;;;;;19.52;9.25;;;3.60;99.90;;;;;;5135145;27;20401;-67
2022/12/04 11:03:43;;;;;;;15.37;7.43;;;2.40;99.90;;;;;;5100789;27;20108;-68
2022/12/04 11:06:10;;;;;;;18.23;9.15;;;3.80;99.90;;;;;;5134834;27;20272;-68
2022/12/04 11:08:42;;;;;;;14.82;7.10;;;2.40;99.90;;;;;;5135613;27;20039;-67
2022/12/04 11:11:11;;;;;;;15.52;7.97;;;2.50;99.90;;;;;;5117283;27;20470;-67
2022/12/04 11:13:38;;;;;;;14.50;7.68;;;3.10;99.90;;;;;;5134768;27;20043;-67
2022/12/04 11:16:07;;;;;;;15.32;8.02;;;2.80;99.90;;;;;;5116104;27;20054;-69
2022/12/04 11:18:49;;;;;;;18.30;8.82;;;2.60;99.90;;;;;;5134710;28;20091;-68
2022/12/04 11:21:21;;;;;;;14.23;7.07;;;2.70;99.90;;;;;;5117213;28;20358;-67
2022/12/04 11:23:50;;;;;;;17.15;8.73;;;2.70;99.90;;;;;;5116899;28;20042;-68
2022/12/04 11:26:35;;;;;;;17.05;8.90;;;2.50;99.90;;;;;;5134972;28;20047;-68
2022/12/04 11:29:02;;;;;;;16.42;8.75;;;4.50;99.90;;;;;;5116615;28;20058;-68
2022/12/04 11:31:29;;;;;;;15.70;8.10;;;2.80;99.90;;;;;;5134599;28;20497;-67
2022/12/04 11:34:00;;;;;;;19.83;9.48;;;2.60;99.90;;;;;;5134545;28;20035;-68
2022/12/04 11:36:31;;;;;;;16.75;8.35;;;2.60;99.90;;;;;;5116618;28;20090;-68
2022/12/04 11:39:11;;;;;;;18.40;8.82;;;3.10;99.90;;;;;;5134708;28;20082;-68
2022/12/04 11:41:38;;;;;;;16.30;8.55;;;2.80;99.90;;;;;;5134100;28;20056;-68
2022/12/04 11:44:23;;;;;;;16.25;8.90;;;2.50;99.90;;;;;;5134540;28;20036;-68
2022/12/04 11:46:57;;;;;;;16.60;7.90;;;3.00;99.90;;;;;;5135268;28;20047;-68
2022/12/04 11:49:27;;;;;;;15.25;7.80;;;2.60;99.90;;;;;;5116043;28;20059;-68
2022/12/04 11:51:59;;;;;;;16.48;8.10;;;2.70;99.90;;;;;;5099588;28;20463;-69
2022/12/04 11:54:52;;;;;;;15.48;7.32;;;2.60;99.90;;;;;;5134382;28;20130;-69
2022/12/04 11:57:26;;;;;;;16.80;8.02;;;2.70;99.90;;;;;;5135231;28;20043;-69
2022/12/04 12:00:12;;;;;;;18.92;9.27;;;3.80;99.90;;;;;;5116263;28;20475;-69
2022/12/04 12:02:43;;;;;;;17.20;9.02;;;2.60;99.90;;;;;;5134268;28;20122;-69
2022/12/04 12:05:18;;;;;;;19.75;8.23;;;2.60;99.90;;;;;;5133868;28;20047;-69
2022/12/04 12:07:52;;;;;;;19.10;9.77;;;2.60;99.90;;;;;;5134282;28;20046;-69
2022/12/04 12:10:28;;;;;;;16.33;9.52;;;2.60;99.90;;;;;;5134934;28;20100;-69
2022/12/04 12:13:00;;;;;;;17.98;10.65;;;2.60;99.90;;;;;;5133831;28;20043;-69
2022/12/04 12:15:47;;;;;;;20.50;10.27;;;2.70;99.90;;;;;;5134660;28;20047;-69
2022/12/04 12:18:31;;;;;;;18.23;8.27;;;2.40;99.90;;;;;;5134088;28;20047;-69
2022/12/04 12:21:22;;;;;;;18.70;10.35;;;2.70;99.90;;;;;;5134553;28;20089;-69
2022/12/04 12:24:46;;;;;;;18.05;9.35;;;2.80;99.90;;;;;;5133951;28;20379;-68
2022/12/04 12:27:14;;;;;;;18.23;9.88;;;2.70;99.90;;;;;;5051980;28;20136;-69
2022/12/04 12:30:05;;;;;;;17.20;8.52;;;3.00;99.90;;;;;;5054102;28;20080;-68
2022/12/04 12:32:36;;;;;;;18.63;9.20;;;2.80;99.90;;;;;;5119775;27;20055;-68
2022/12/04 12:35:12;;;;;;;16.92;8.70;;;3.70;99.90;;;;;;5137669;27;20047;-68
2022/12/04 12:37:46;;;;;;;17.23;8.30;;;2.40;99.90;;;;;;5138339;27;20043;-69
2022/12/04 12:40:38;;;;;;;19.30;8.68;;;2.90;99.90;;;;;;5102663;27;20046;-68
2022/12/04 12:43:18;;;;;;;18.42;8.40;;;3.30;99.90;;;;;;5128763;27;20055;-68
2022/12/04 12:46:14;;;;;;;19.13;9.75;;;3.20;99.90;;;;;;5102322;27;20055;-69
2022/12/04 12:48:49;;;;;;;15.73;7.97;;;2.80;99.90;;;;;;5102307;27;20047;-68
2022/12/04 12:51:23;;;;;;;17.67;8.35;;;2.80;99.90;;;;;;5137983;27;20088;-69
2022/12/04 12:53:52;;;;;;;16.20;8.15;;;3.30;99.90;;;;;;5118962;27;20043;-68
2022/12/04 12:56:28;;;;;;;21.98;10.30;;;2.90;99.90;;;;;;5137148;27;20122;-68
2022/12/04 12:58:58;;;;;;;19.55;9.43;;;3.20;99.90;;;;;;5137135;27;20118;-69
2022/12/04 13:01:50;;;;;;;22.02;9.63;;;2.70;99.90;;;;;;5137018;27;20134;-68
2022/12/04 13:04:31;;;;;;;20.02;9.60;;;3.00;99.90;;;;;;5137032;27;20126;-68
2022/12/04 13:07:15;;;;;;;19.00;8.57;;;2.70;99.90;;;;;;5118537;27;20092;-68
2022/12/04 13:09:51;;;;;;;22.90;9.85;;;3.10;99.90;;;;;;5137726;27;20362;-68
2022/12/04 13:12:19;;;;;;;21.50;10.38;;;3.70;99.90;;;;;;5137525;27;20047;-69
2022/12/04 13:14:45;;;;;;;21.88;10.77;;;3.40;99.90;;;;;;5101823;27;20050;-69